Sycamore, California
Current Conditions -  °F | °C
As of 6:53 AM on Monday 22 Dec 2014 (Local Time) from KMYV Reporting Station
Overcast Overcast  
Wind Chill: 55°   Ceiling: 1100
Heat Index: 55°   Visibility: 10mi
Dew Point: 54°   Wind: 7mph
Humidity: 96%   Direction: 330°NNW
Pressure: 30.27"   Gusts: NA
Location:  39.0299°N, 121.788°W
Report Text: KMYV 221453Z AUTO 33006KT 10SM OVC011 13/12 A3027 RMK AO2 SLP252 T01280122 53002
Loading
Personal Weather Stations






























Interactive Weather Map New forecast layout! Learn more

10-Day Weather Forecast

Advertisements
Track Severe Weather on mobile